Time;durP1;ratioP1;P1;durP2;ratioP2;P2;SDS_P1;SDS_P2;PMS_P1;PMS_P2;Temp;Humidity;BMP_temperature;BMP_pressure;BME280_temperature;BME280_humidity;BME280_pressure;Samples;Min_cycle;Max_cycle;Signal;HPM_P1;HPM_P2
2021/08/24 00:00:50;;;;;;;5.05;3.60;;;14.40;97.10;;;;;;5075556;28;20021;-48
2021/08/24 00:03:16;;;;;;;7.03;4.15;;;14.40;97.20;;;;;;5057634;28;20055;-49
2021/08/24 00:05:42;;;;;;;5.93;3.70;;;14.40;97.20;;;;;;5075576;28;20033;-50
2021/08/24 00:08:07;;;;;;;4.25;3.42;;;14.30;97.20;;;;;;5076837;28;20124;-48
2021/08/24 00:10:37;;;;;;;5.72;3.58;;;14.30;97.30;;;;;;5075713;28;20033;-49
2021/08/24 00:13:03;;;;;;;8.05;4.53;;;14.30;97.40;;;;;;5075427;28;20040;-49
2021/08/24 00:15:29;;;;;;;6.40;3.78;;;14.40;97.30;;;;;;5075064;28;20090;-54
2021/08/24 00:17:55;;;;;;;4.25;3.50;;;14.30;97.30;;;;;;5075356;28;20032;-50
2021/08/24 00:20:22;;;;;;;7.15;3.92;;;14.20;97.60;;;;;;5087809;28;20042;-52
2021/08/24 00:22:48;;;;;;;6.82;3.72;;;14.20;97.50;;;;;;5095197;28;20059;-49
2021/08/24 00:25:15;;;;;;;5.40;3.80;;;14.20;97.80;;;;;;5088528;28;20068;-49
2021/08/24 00:27:41;;;;;;;5.82;3.70;;;14.20;97.40;;;;;;5074934;28;20064;-50
2021/08/24 00:30:08;;;;;;;5.60;3.55;;;14.30;97.50;;;;;;5074302;28;20530;-51
2021/08/24 00:32:34;;;;;;;5.15;3.53;;;14.20;97.50;;;;;;5074816;28;20048;-47
2021/08/24 00:34:59;;;;;;;4.60;3.80;;;14.20;97.70;;;;;;5075091;28;20531;-48
2021/08/24 00:37:25;;;;;;;6.93;4.05;;;14.20;97.70;;;;;;5075077;28;20028;-54
2021/08/24 00:39:51;;;;;;;8.50;5.07;;;14.20;97.90;;;;;;5074871;28;20159;-49
2021/08/24 00:42:18;;;;;;;6.93;3.90;;;14.00;98.00;;;;;;5074830;28;20111;-54
2021/08/24 00:44:44;;;;;;;6.22;3.80;;;13.90;98.70;;;;;;5074503;28;20439;-52
2021/08/24 00:47:13;;;;;;;6.65;3.70;;;14.00;98.20;;;;;;5074144;28;20522;-52
2021/08/24 00:49:38;;;;;;;6.35;4.00;;;14.00;98.40;;;;;;5074599;28;20024;-53
2021/08/24 00:52:17;;;;;;;6.15;4.10;;;14.00;98.50;;;;;;5075279;28;20054;-48
2021/08/24 00:54:44;;;;;;;5.00;3.78;;;14.00;98.30;;;;;;5074933;28;20108;-49
2021/08/24 00:57:17;;;;;;;5.95;4.55;;;13.90;98.50;;;;;;5073458;28;20055;-49
2021/08/24 00:59:43;;;;;;;6.30;3.90;;;14.00;98.60;;;;;;5074443;28;20094;-48
2021/08/24 01:02:11;;;;;;;6.45;3.88;;;13.90;98.70;;;;;;5073904;28;20484;-49
2021/08/24 01:04:38;;;;;;;7.60;3.97;;;13.80;98.70;;;;;;5074269;28;20024;-49
2021/08/24 01:07:15;;;;;;;5.25;4.00;;;13.90;98.80;;;;;;5074166;28;20028;-49
2021/08/24 01:10:16;;;;;;;5.35;4.03;;;13.90;98.90;;;;;;5073983;28;20074;-53
2021/08/24 01:13:19;;;;;;;5.10;3.63;;;14.00;98.80;;;;;;5074679;28;20031;-50
2021/08/24 01:16:01;;;;;;;6.05;3.97;;;14.00;98.60;;;;;;5074046;28;20464;-51
2021/08/24 01:18:32;;;;;;;7.07;3.90;;;14.00;98.80;;;;;;5074243;28;20036;-49
2021/08/24 01:21:14;;;;;;;7.45;4.10;;;13.90;98.80;;;;;;5091363;28;20067;-48
2021/08/24 01:24:01;;;;;;;5.70;3.60;;;14.00;98.70;;;;;;5094531;28;20035;-52
2021/08/24 01:26:42;;;;;;;6.82;3.75;;;14.00;98.80;;;;;;5059441;28;20036;-49
2021/08/24 01:29:29;;;;;;;7.00;4.53;;;14.00;98.70;;;;;;5074311;28;20037;-54
2021/08/24 01:32:32;;;;;;;5.45;4.18;;;14.10;98.50;;;;;;5074012;28;20091;-50
2021/08/24 01:35:42;;;;;;;5.72;4.28;;;14.00;98.60;;;;;;5071401;28;20079;-55
2021/08/24 01:38:31;;;;;;;6.90;4.47;;;13.90;98.70;;;;;;5073054;28;20016;-49
2021/08/24 01:41:00;;;;;;;5.55;4.18;;;13.90;98.70;;;;;;5070743;28;20048;-49
2021/08/24 01:43:54;;;;;;;5.53;4.10;;;14.00;98.80;;;;;;5072394;28;20407;-51
2021/08/24 01:47:03;;;;;;;6.38;4.38;;;14.00;98.80;;;;;;5070780;28;20078;-52
2021/08/24 01:49:40;;;;;;;6.22;4.53;;;14.00;98.60;;;;;;5069913;28;20040;-52
2021/08/24 01:52:13;;;;;;;6.63;4.45;;;13.90;98.60;;;;;;5086605;28;20086;-53
2021/08/24 01:54:44;;;;;;;6.40;4.22;;;13.80;98.70;;;;;;5072998;28;20021;-53
2021/08/24 01:57:28;;;;;;;7.65;4.40;;;13.80;98.90;;;;;;5071713;28;20037;-51
2021/08/24 01:59:59;;;;;;;6.90;4.10;;;13.70;99.20;;;;;;5069348;28;20480;-49
2021/08/24 02:02:31;;;;;;;7.38;4.40;;;13.80;99.10;;;;;;5071654;28;20032;-50
2021/08/24 02:05:14;;;;;;;5.43;4.30;;;13.70;99.10;;;;;;5070007;28;20059;-52
2021/08/24 02:07:40;;;;;;;6.90;4.28;;;13.70;99.40;;;;;;5070612;28;20021;-54
2021/08/24 02:10:15;;;;;;;6.43;4.43;;;13.60;99.50;;;;;;5072607;28;20040;-49
2021/08/24 02:12:44;;;;;;;4.90;3.97;;;13.70;99.30;;;;;;5052714;28;20021;-48
2021/08/24 02:15:10;;;;;;;6.53;4.00;;;13.60;99.50;;;;;;5071771;28;20051;-49
2021/08/24 02:17:40;;;;;;;7.32;4.32;;;13.60;99.50;;;;;;5071349;28;20025;-48
2021/08/24 02:20:22;;;;;;;9.07;4.70;;;13.60;99.60;;;;;;5076773;28;20040;-49
2021/08/24 02:22:51;;;;;;;5.78;4.07;;;13.60;99.60;;;;;;5071131;28;20028;-49
2021/08/24 02:25:23;;;;;;;6.68;4.15;;;13.60;99.50;;;;;;5072216;28;20033;-51
2021/08/24 02:28:18;;;;;;;7.05;4.53;;;13.50;99.80;;;;;;5054410;28;20029;-49
2021/08/24 02:30:58;;;;;;;6.93;4.87;;;13.60;99.80;;;;;;5063207;28;20076;-51
2021/08/24 02:33:30;;;;;;;7.07;4.32;;;13.60;99.70;;;;;;5073465;28;20032;-49
2021/08/24 02:36:00;;;;;;;7.90;4.28;;;13.50;99.80;;;;;;5072560;28;20028;-47
2021/08/24 02:38:29;;;;;;;8.90;4.65;;;13.60;99.90;;;;;;5072635;28;20036;-49
2021/08/24 02:41:15;;;;;;;8.93;4.28;;;13.50;99.90;;;;;;5072668;28;20032;-50
2021/08/24 02:44:12;;;;;;;7.65;4.65;;;13.50;99.90;;;;;;5054899;28;20044;-49
2021/08/24 02:46:48;;;;;;;7.88;4.55;;;13.40;99.90;;;;;;5072706;28;20068;-50
2021/08/24 02:49:27;;;;;;;7.32;4.70;;;13.40;99.90;;;;;;5072491;28;20028;-53
2021/08/24 02:51:55;;;;;;;7.47;4.55;;;13.40;99.90;;;;;;5072067;28;20083;-52
2021/08/24 02:54:26;;;;;;;6.22;4.45;;;13.30;99.90;;;;;;5073017;28;20027;-53
2021/08/24 02:56:52;;;;;;;6.47;4.45;;;13.40;99.90;;;;;;5072915;28;20380;-49
2021/08/24 02:59:18;;;;;;;7.85;4.40;;;13.40;99.90;;;;;;5072250;28;20115;-51
2021/08/24 03:01:43;;;;;;;8.32;4.95;;;13.30;99.90;;;;;;5071143;28;20025;-48
2021/08/24 03:04:10;;;;;;;8.52;4.43;;;13.30;99.90;;;;;;5071659;28;20119;-48
2021/08/24 03:06:46;;;;;;;7.65;4.82;;;13.30;99.90;;;;;;5072506;28;20044;-50
2021/08/24 03:09:14;;;;;;;12.77;4.63;;;13.30;99.90;;;;;;5072529;28;20029;-48
2021/08/24 03:11:46;;;;;;;7.68;4.65;;;13.40;99.90;;;;;;5072534;28;20078;-50
2021/08/24 03:14:24;;;;;;;7.93;4.32;;;13.20;99.90;;;;;;5076619;28;20046;-47
2021/08/24 03:16:58;;;;;;;7.57;4.35;;;13.30;99.90;;;;;;5075706;28;20021;-48
2021/08/24 03:19:29;;;;;;;5.35;4.22;;;13.20;99.90;;;;;;5080423;28;20506;-51
2021/08/24 03:21:57;;;;;;;7.70;4.63;;;13.20;99.90;;;;;;5096411;28;20063;-50
2021/08/24 03:24:24;;;;;;;6.97;4.05;;;13.20;99.90;;;;;;5078721;28;20039;-54
2021/08/24 03:26:50;;;;;;;6.57;5.07;;;13.20;99.90;;;;;;5096239;28;20047;-52
2021/08/24 03:29:20;;;;;;;10.70;4.85;;;13.10;99.90;;;;;;5077528;28;20493;-53
2021/08/24 03:31:56;;;;;;;6.30;4.80;;;13.10;99.90;;;;;;5095668;28;20434;-52
2021/08/24 03:34:23;;;;;;;7.30;4.28;;;13.10;99.90;;;;;;5096094;28;20028;-49
2021/08/24 03:36:48;;;;;;;7.20;4.80;;;13.00;99.90;;;;;;5095554;28;20020;-49
2021/08/24 03:39:14;;;;;;;6.82;4.90;;;13.00;99.90;;;;;;5095713;28;20369;-50
2021/08/24 03:41:40;;;;;;;7.78;4.80;;;13.00;99.90;;;;;;5095399;28;20056;-53
2021/08/24 03:44:06;;;;;;;9.48;4.40;;;13.00;99.90;;;;;;5095931;28;20089;-50
2021/08/24 03:46:32;;;;;;;6.70;4.65;;;13.00;99.90;;;;;;5097139;28;20039;-53
2021/08/24 03:48:57;;;;;;;8.48;4.78;;;13.00;99.90;;;;;;5096958;28;20031;-54
2021/08/24 03:51:23;;;;;;;9.10;4.68;;;12.90;99.90;;;;;;5089988;28;20059;-48
2021/08/24 03:53:49;;;;;;;7.07;5.00;;;13.00;99.90;;;;;;5076477;28;20055;-49
2021/08/24 03:56:14;;;;;;;6.30;4.30;;;13.00;99.90;;;;;;5077049;28;20033;-52
2021/08/24 03:58:40;;;;;;;8.68;4.50;;;12.90;99.90;;;;;;5058558;28;20032;-51
2021/08/24 04:01:14;;;;;;;7.22;4.30;;;12.90;99.90;;;;;;5076096;28;20032;-48
2021/08/24 04:03:40;;;;;;;6.78;4.85;;;13.00;99.90;;;;;;5057774;28;20484;-49
2021/08/24 04:06:06;;;;;;;8.35;4.82;;;13.00;99.90;;;;;;5075820;28;20199;-53
2021/08/24 04:08:31;;;;;;;6.90;4.70;;;13.10;99.90;;;;;;5075364;28;20087;-49
2021/08/24 04:10:57;;;;;;;8.30;4.50;;;13.00;99.90;;;;;;5075444;28;20096;-48
2021/08/24 04:13:23;;;;;;;8.82;5.32;;;12.90;99.90;;;;;;5076466;28;20490;-48
2021/08/24 04:15:49;;;;;;;6.82;4.68;;;13.00;99.90;;;;;;5075699;28;20031;-49
2021/08/24 04:18:15;;;;;;;6.90;4.90;;;13.00;99.90;;;;;;5076080;28;20029;-51
2021/08/24 04:20:41;;;;;;;7.35;4.70;;;13.00;99.90;;;;;;5090747;28;20089;-48
2021/08/24 04:23:08;;;;;;;7.78;5.05;;;13.00;99.90;;;;;;5095687;28;20032;-49
2021/08/24 04:25:33;;;;;;;14.43;5.57;;;12.90;99.90;;;;;;5096084;28;20066;-50
2021/08/24 04:27:59;;;;;;;6.40;4.28;;;12.90;99.90;;;;;;5095790;28;20044;-52
2021/08/24 04:30:25;;;;;;;6.57;4.70;;;13.00;99.90;;;;;;5077933;28;20036;-51
2021/08/24 04:32:50;;;;;;;7.85;4.65;;;12.90;99.90;;;;;;5096485;28;20055;-52
2021/08/24 04:35:19;;;;;;;7.35;5.22;;;12.90;99.90;;;;;;5095433;28;20060;-51
2021/08/24 04:37:45;;;;;;;8.15;4.65;;;12.90;99.90;;;;;;5095742;28;20391;-51
2021/08/24 04:40:11;;;;;;;8.50;5.07;;;12.80;99.90;;;;;;5078698;28;20032;-50
2021/08/24 04:42:37;;;;;;;8.88;4.47;;;12.80;99.90;;;;;;5077995;28;20067;-48
2021/08/24 04:45:04;;;;;;;11.05;5.38;;;12.80;99.90;;;;;;5095718;28;20040;-49
2021/08/24 04:47:30;;;;;;;8.90;5.50;;;12.90;99.90;;;;;;5078435;28;20036;-51
2021/08/24 04:49:55;;;;;;;7.22;4.85;;;12.90;99.90;;;;;;5096540;28;20031;-49
2021/08/24 04:52:21;;;;;;;9.23;5.68;;;12.80;99.90;;;;;;5081504;28;20111;-51
2021/08/24 04:54:47;;;;;;;9.35;4.68;;;12.70;99.90;;;;;;5075102;28;20030;-51
2021/08/24 04:57:12;;;;;;;9.70;4.72;;;12.70;99.90;;;;;;5074969;28;20060;-51
2021/08/24 04:59:38;;;;;;;9.93;5.30;;;12.80;99.90;;;;;;5074795;28;20111;-51
2021/08/24 05:02:03;;;;;;;6.15;4.72;;;12.90;99.90;;;;;;5090823;28;20040;-53
2021/08/24 05:04:29;;;;;;;6.88;4.50;;;12.90;99.90;;;;;;5074549;28;20572;-50
2021/08/24 05:06:54;;;;;;;9.32;5.18;;;13.00;99.90;;;;;;5074548;28;20071;-52
2021/08/24 05:09:21;;;;;;;10.50;5.25;;;12.90;99.90;;;;;;5089654;28;20040;-50
2021/08/24 05:11:46;;;;;;;9.95;5.72;;;12.90;99.90;;;;;;5074654;28;20025;-49
2021/08/24 05:14:12;;;;;;;9.95;6.10;;;13.00;99.90;;;;;;5074489;28;20031;-52
2021/08/24 05:16:38;;;;;;;11.05;6.15;;;13.10;99.90;;;;;;5074344;28;20021;-48
2021/08/24 05:19:05;;;;;;;9.52;5.13;;;13.00;99.90;;;;;;5076200;28;20028;-52
2021/08/24 05:21:32;;;;;;;10.25;5.53;;;13.10;99.90;;;;;;5094484;28;20032;-49
2021/08/24 05:23:58;;;;;;;9.52;6.13;;;13.10;99.90;;;;;;5095053;28;20036;-50
2021/08/24 05:26:23;;;;;;;6.57;4.97;;;13.20;99.90;;;;;;5095194;28;20061;-51
2021/08/24 05:28:49;;;;;;;6.28;5.22;;;13.30;99.90;;;;;;5094170;28;20028;-52
2021/08/24 05:31:15;;;;;;;7.38;5.03;;;13.40;99.90;;;;;;5094368;28;20549;-52
2021/08/24 05:33:41;;;;;;;9.63;5.10;;;13.30;99.90;;;;;;5094197;28;20036;-53
2021/08/24 05:36:07;;;;;;;8.57;5.43;;;13.30;99.90;;;;;;5093800;28;20028;-54
2021/08/24 05:38:33;;;;;;;7.50;5.13;;;13.30;99.90;;;;;;5080293;28;20039;-50
2021/08/24 05:41:00;;;;;;;7.65;4.93;;;13.30;99.90;;;;;;5074461;28;20024;-50
2021/08/24 05:43:26;;;;;;;10.10;6.05;;;13.40;99.90;;;;;;5072898;28;20055;-50
2021/08/24 05:46:07;;;;;;;12.20;6.07;;;13.30;99.90;;;;;;5071750;28;20021;-52
2021/08/24 05:48:34;;;;;;;11.45;5.80;;;13.30;99.90;;;;;;5071870;28;20029;-54
2021/08/24 05:51:00;;;;;;;9.23;5.95;;;13.30;99.90;;;;;;5071468;28;20098;-54
2021/08/24 05:53:26;;;;;;;7.82;6.13;;;13.30;99.90;;;;;;5073256;28;20056;-49
2021/08/24 05:55:52;;;;;;;7.25;6.03;;;13.40;99.90;;;;;;5073054;28;20028;-48
2021/08/24 05:58:18;;;;;;;11.32;7.65;;;13.40;99.90;;;;;;5073086;28;20025;-52
2021/08/24 06:00:43;;;;;;;10.68;7.00;;;13.50;99.90;;;;;;5073266;28;20041;-51
2021/08/24 06:03:09;;;;;;;9.75;7.38;;;13.50;99.90;;;;;;5072844;28;20064;-51
2021/08/24 06:05:39;;;;;;;10.18;6.72;;;13.60;99.90;;;;;;5072477;28;20048;-53
2021/08/24 06:08:06;;;;;;;10.38;7.28;;;13.60;99.90;;;;;;5073227;28;20557;-54
2021/08/24 06:10:36;;;;;;;8.23;6.70;;;13.70;99.90;;;;;;5073951;28;20032;-53
2021/08/24 06:13:02;;;;;;;10.98;6.70;;;13.70;99.90;;;;;;5073717;28;20035;-51
2021/08/24 06:15:30;;;;;;;12.55;6.72;;;13.90;99.90;;;;;;5055252;28;20051;-53
2021/08/24 06:17:56;;;;;;;7.80;6.60;;;14.20;99.90;;;;;;5073241;28;20083;-50
2021/08/24 06:20:21;;;;;;;10.48;6.65;;;14.00;99.90;;;;;;5085858;28;20047;-53
2021/08/24 06:22:47;;;;;;;7.28;5.95;;;14.20;99.90;;;;;;5093539;28;20122;-48
2021/08/24 06:25:15;;;;;;;7.22;6.25;;;14.10;99.90;;;;;;5093142;28;20059;-50
2021/08/24 06:27:41;;;;;;;9.18;6.13;;;14.20;99.90;;;;;;5092786;28;20066;-50
2021/08/24 06:30:07;;;;;;;7.55;6.75;;;14.10;99.90;;;;;;5093614;28;20052;-49
2021/08/24 06:32:36;;;;;;;17.70;7.05;;;14.00;99.90;;;;;;5073815;28;20028;-48
2021/08/24 06:35:03;;;;;;;9.45;6.53;;;14.00;99.90;;;;;;5072681;28;20073;-54
2021/08/24 06:37:29;;;;;;;9.30;6.60;;;14.00;99.90;;;;;;5072920;28;20063;-51
2021/08/24 06:39:55;;;;;;;8.48;5.93;;;14.10;99.90;;;;;;5073542;28;20052;-50
2021/08/24 06:42:20;;;;;;;8.63;6.22;;;14.10;99.90;;;;;;5073660;28;20078;-50
2021/08/24 06:44:46;;;;;;;9.60;5.90;;;14.20;99.90;;;;;;5072956;28;20041;-51
2021/08/24 06:47:11;;;;;;;7.88;5.95;;;14.20;99.90;;;;;;5074838;28;20091;-50
2021/08/24 06:49:38;;;;;;;9.55;5.93;;;14.10;99.90;;;;;;5076784;28;20041;-50
2021/08/24 06:52:05;;;;;;;9.55;6.53;;;14.30;99.90;;;;;;5076667;28;20033;-51
2021/08/24 06:54:32;;;;;;;8.65;6.38;;;14.30;99.90;;;;;;5059311;28;20050;-50
2021/08/24 06:56:57;;;;;;;7.60;5.95;;;14.30;99.90;;;;;;5076505;28;20052;-49
2021/08/24 06:59:23;;;;;;;10.43;6.53;;;14.50;99.90;;;;;;5076981;28;20024;-50
2021/08/24 07:01:49;;;;;;;8.20;6.00;;;14.60;99.90;;;;;;5076505;28;20029;-48
2021/08/24 07:04:16;;;;;;;10.15;6.00;;;14.70;99.80;;;;;;5076841;28;20055;-47
2021/08/24 07:06:47;;;;;;;7.47;5.88;;;14.70;99.80;;;;;;5077099;28;20029;-52
2021/08/24 07:09:14;;;;;;;7.75;5.72;;;14.70;99.50;;;;;;5091742;28;20031;-52
2021/08/24 07:11:39;;;;;;;10.20;6.03;;;14.70;99.60;;;;;;5076868;28;20039;-54
2021/08/24 07:14:05;;;;;;;8.15;7.15;;;14.60;99.90;;;;;;5076712;28;20024;-50
2021/08/24 07:16:31;;;;;;;8.07;5.97;;;14.60;99.90;;;;;;5076339;28;20079;-53
2021/08/24 07:18:57;;;;;;;7.97;6.03;;;14.70;99.70;;;;;;5077236;28;20035;-55
2021/08/24 07:21:24;;;;;;;8.02;6.70;;;14.60;99.70;;;;;;5078069;28;20032;-51
2021/08/24 07:23:50;;;;;;;8.52;7.03;;;14.60;99.90;;;;;;5078584;28;20032;-53
2021/08/24 07:26:18;;;;;;;8.77;6.53;;;14.60;99.80;;;;;;5061261;28;20033;-54
2021/08/24 07:28:44;;;;;;;9.43;6.40;;;14.60;99.70;;;;;;5079205;28;20066;-53
2021/08/24 07:31:10;;;;;;;8.48;6.03;;;14.60;99.70;;;;;;5076140;28;20047;-53
2021/08/24 07:33:36;;;;;;;8.63;5.82;;;14.70;99.70;;;;;;5078278;28;20075;-54
2021/08/24 07:36:02;;;;;;;9.27;5.93;;;14.70;99.70;;;;;;5077319;28;20476;-49
2021/08/24 07:38:28;;;;;;;7.03;5.85;;;14.90;99.60;;;;;;5058639;28;20029;-54
2021/08/24 07:40:54;;;;;;;10.02;5.78;;;15.10;99.10;;;;;;5075796;28;20495;-54
2021/08/24 07:43:21;;;;;;;6.82;5.57;;;15.30;98.90;;;;;;5075399;28;20028;-48
2021/08/24 07:45:47;;;;;;;9.25;5.45;;;15.20;99.00;;;;;;5076169;28;20032;-52
2021/08/24 07:48:14;;;;;;;6.75;4.95;;;15.20;98.80;;;;;;5076332;28;20065;-52
2021/08/24 07:50:40;;;;;;;8.60;5.50;;;15.30;99.10;;;;;;5076537;28;20097;-53
2021/08/24 07:53:06;;;;;;;7.22;4.75;;;15.30;99.00;;;;;;5064410;28;20535;-51
2021/08/24 07:55:32;;;;;;;8.77;4.78;;;15.50;98.90;;;;;;5075621;28;20147;-50
2021/08/24 07:57:57;;;;;;;7.20;4.70;;;15.60;98.30;;;;;;5074905;28;20052;-52
2021/08/24 08:00:24;;;;;;;7.95;4.88;;;15.50;98.50;;;;;;5076679;28;20090;-52
2021/08/24 08:02:50;;;;;;;7.80;5.30;;;15.60;98.50;;;;;;5076266;28;20498;-54
2021/08/24 08:05:17;;;;;;;6.07;4.30;;;15.70;98.20;;;;;;5074684;28;20043;-49
2021/08/24 08:07:43;;;;;;;9.75;5.65;;;15.70;98.00;;;;;;5074424;28;20489;-51
2021/08/24 08:10:10;;;;;;;7.60;5.45;;;15.70;98.30;;;;;;5074558;28;20043;-49
2021/08/24 08:12:36;;;;;;;7.88;5.15;;;15.80;98.10;;;;;;5074851;28;20037;-51
2021/08/24 08:15:03;;;;;;;6.20;4.30;;;15.90;97.70;;;;;;5074770;28;20040;-51
2021/08/24 08:17:29;;;;;;;11.88;4.60;;;15.90;97.80;;;;;;5074114;28;20664;-48
2021/08/24 08:19:54;;;;;;;6.03;4.53;;;15.90;97.90;;;;;;5084468;28;20058;-52
2021/08/24 08:22:20;;;;;;;10.02;4.95;;;15.90;98.10;;;;;;5096006;28;20092;-51
2021/08/24 08:24:46;;;;;;;5.45;4.35;;;16.00;98.00;;;;;;5077739;28;20504;-53
2021/08/24 08:27:11;;;;;;;7.57;4.90;;;16.00;97.80;;;;;;5095529;28;20428;-52
2021/08/24 08:29:37;;;;;;;7.95;5.20;;;16.20;97.60;;;;;;5095108;28;20373;-52
2021/08/24 08:32:10;;;;;;;6.20;4.20;;;16.30;97.50;;;;;;5095291;28;20032;-53
2021/08/24 08:34:36;;;;;;;6.38;5.00;;;16.50;97.60;;;;;;5095838;28;20108;-53
2021/08/24 08:37:02;;;;;;;8.25;4.55;;;16.70;97.10;;;;;;5094906;28;20032;-49
2021/08/24 08:39:28;;;;;;;7.22;4.00;;;16.80;97.00;;;;;;5095351;28;20031;-48
2021/08/24 08:42:25;;;;;;;7.47;4.40;;;16.90;96.50;;;;;;5080019;28;20082;-52
2021/08/24 08:44:59;;;;;;;6.97;4.00;;;16.90;96.30;;;;;;5075386;28;20020;-50
2021/08/24 08:47:40;;;;;;;8.73;4.20;;;16.80;96.50;;;;;;5074950;28;20032;-51
2021/08/24 08:50:25;;;;;;;8.05;4.18;;;17.00;96.60;;;;;;5057744;28;20044;-50
2021/08/24 08:53:06;;;;;;;6.82;3.92;;;16.90;96.70;;;;;;5076530;28;20027;-50
2021/08/24 08:55:53;;;;;;;7.22;3.92;;;17.10;96.10;;;;;;5075493;28;20037;-53
2021/08/24 08:58:57;;;;;;;7.32;4.53;;;16.80;96.60;;;;;;5074427;28;20389;-49
2021/08/24 09:01:50;;;;;;;9.75;5.60;;;16.80;96.70;;;;;;5074230;28;20028;-53
2021/08/24 09:04:29;;;;;;;5.47;3.90;;;16.80;96.70;;;;;;5074975;28;20032;-53
2021/08/24 09:06:58;;;;;;;5.80;3.70;;;17.00;96.50;;;;;;5074008;28;20443;-49
2021/08/24 09:09:25;;;;;;;7.53;4.20;;;17.00;96.10;;;;;;5056412;28;20098;-49
2021/08/24 09:11:52;;;;;;;5.72;3.72;;;17.10;96.00;;;;;;5073769;28;20028;-52
2021/08/24 09:14:44;;;;;;;7.75;4.00;;;17.30;95.80;;;;;;5074618;28;20020;-52
2021/08/24 09:17:30;;;;;;;5.32;3.72;;;17.20;96.00;;;;;;5074131;28;20099;-49
2021/08/24 09:20:13;;;;;;;5.07;3.63;;;17.30;95.80;;;;;;5083412;28;20088;-48
2021/08/24 09:22:40;;;;;;;5.57;3.90;;;17.60;94.80;;;;;;5094939;28;20027;-53
2021/08/24 09:25:12;;;;;;;11.05;4.90;;;17.90;94.30;;;;;;5076387;28;20448;-51
2021/08/24 09:28:03;;;;;;;5.93;3.90;;;18.10;94.10;;;;;;5094051;28;20105;-53
2021/08/24 09:30:29;;;;;;;5.88;4.13;;;18.10;93.90;;;;;;5093862;28;20032;-52
2021/08/24 09:33:03;;;;;;;7.15;3.97;;;18.10;93.90;;;;;;5094401;28;20042;-52
2021/08/24 09:35:31;;;;;;;6.45;4.00;;;18.00;94.00;;;;;;5093922;28;20066;-51
2021/08/24 09:38:01;;;;;;;6.47;3.70;;;17.90;94.30;;;;;;5094510;28;20089;-49
2021/08/24 09:40:36;;;;;;;7.20;3.85;;;17.70;94.20;;;;;;5094222;28;20051;-54
2021/08/24 09:43:23;;;;;;;7.75;4.18;;;17.50;94.40;;;;;;5078720;28;20024;-50
2021/08/24 09:45:56;;;;;;;7.30;4.13;;;17.40;94.50;;;;;;5073174;28;20055;-53
2021/08/24 09:48:22;;;;;;;6.65;4.30;;;17.40;94.50;;;;;;5073905;28;20025;-55
2021/08/24 09:50:47;;;;;;;7.53;4.57;;;17.50;94.20;;;;;;5056379;28;20456;-50
2021/08/24 09:53:34;;;;;;;7.70;4.43;;;17.70;94.20;;;;;;5073482;28;20480;-51
2021/08/24 09:56:07;;;;;;;7.53;4.03;;;18.10;93.10;;;;;;5073551;28;20083;-49
2021/08/24 09:58:51;;;;;;;5.68;3.80;;;18.20;92.80;;;;;;5073673;28;20037;-50
2021/08/24 10:01:17;;;;;;;6.85;4.15;;;18.60;92.90;;;;;;5072257;28;20440;-52
2021/08/24 10:04:02;;;;;;;5.95;3.78;;;18.70;92.80;;;;;;5072847;28;20040;-54
2021/08/24 10:06:34;;;;;;;8.13;4.10;;;18.70;92.50;;;;;;5071838;28;20032;-53
2021/08/24 10:09:26;;;;;;;8.18;4.57;;;18.50;92.80;;;;;;5072331;28;20084;-48
2021/08/24 10:11:52;;;;;;;6.25;3.78;;;18.20;92.50;;;;;;5068587;28;20065;-51
2021/08/24 10:14:26;;;;;;;7.03;3.78;;;18.10;92.90;;;;;;5073638;28;20024;-54
2021/08/24 10:16:56;;;;;;;9.18;4.70;;;18.20;92.80;;;;;;5071893;28;20028;-53
2021/08/24 10:19:29;;;;;;;5.07;3.83;;;18.40;92.40;;;;;;5070909;28;20024;-54
2021/08/24 10:22:02;;;;;;;5.35;3.85;;;18.50;92.60;;;;;;5070327;28;20492;-52
2021/08/24 10:24:57;;;;;;;6.10;3.90;;;18.70;91.90;;;;;;5069409;28;20028;-56
2021/08/24 10:27:25;;;;;;;4.70;3.70;;;19.00;91.60;;;;;;5057241;28;20504;-53
2021/08/24 10:29:54;;;;;;;8.70;4.60;;;18.70;92.20;;;;;;5072425;28;20385;-53
2021/08/24 10:32:29;;;;;;;6.15;4.05;;;18.60;92.30;;;;;;5068870;28;20048;-49
2021/08/24 10:34:55;;;;;;;6.57;4.10;;;18.60;92.40;;;;;;5072258;28;20013;-51
2021/08/24 10:37:23;;;;;;;5.85;4.10;;;18.70;92.10;;;;;;5068909;28;20029;-51
2021/08/24 10:39:52;;;;;;;8.32;3.90;;;18.80;92.30;;;;;;5071799;28;20025;-51
2021/08/24 10:42:22;;;;;;;5.43;3.90;;;19.20;92.00;;;;;;5071212;28;20035;-50
2021/08/24 10:44:59;;;;;;;5.90;4.22;;;19.60;91.40;;;;;;5070890;28;20016;-54
2021/08/24 10:47:28;;;;;;;10.95;5.95;;;19.90;90.60;;;;;;5071983;28;20029;-51
2021/08/24 10:49:56;;;;;;;7.00;4.00;;;20.10;89.60;;;;;;5070819;28;20087;-50
2021/08/24 10:52:53;;;;;;;4.95;3.60;;;19.90;89.50;;;;;;5071625;28;20051;-51
2021/08/24 10:55:25;;;;;;;7.60;4.53;;;19.90;88.30;;;;;;5050694;28;20098;-51
2021/08/24 10:58:11;;;;;;;6.50;4.13;;;19.90;88.10;;;;;;5067404;28;20667;-51
2021/08/24 11:01:03;;;;;;;7.18;4.07;;;20.00;88.70;;;;;;5069739;28;20090;-50
2021/08/24 11:03:34;;;;;;;5.85;3.92;;;20.10;88.20;;;;;;5072088;28;20197;-54
2021/08/24 11:06:18;;;;;;;5.60;4.05;;;20.00;86.90;;;;;;5071442;28;20365;-50
2021/08/24 11:09:02;;;;;;;6.45;3.75;;;20.00;86.30;;;;;;5071929;28;20361;-50
2021/08/24 11:11:57;;;;;;;7.53;4.00;;;20.20;86.60;;;;;;5071295;28;20131;-54
2021/08/24 11:14:43;;;;;;;6.63;4.10;;;20.30;85.40;;;;;;5029102;28;20033;-52
2021/08/24 11:17:24;;;;;;;7.55;4.20;;;20.60;85.70;;;;;;5075137;28;20020;-54
2021/08/24 11:19:56;;;;;;;6.15;4.00;;;20.70;84.20;;;;;;5074043;28;20028;-54
2021/08/24 11:22:35;;;;;;;7.97;4.07;;;20.60;84.70;;;;;;5071709;28;20028;-50
2021/08/24 11:25:26;;;;;;;4.88;3.92;;;20.60;84.20;;;;;;5067704;28;20021;-55
2021/08/24 11:28:05;;;;;;;7.50;3.90;;;20.60;85.20;;;;;;5071952;28;20043;-49
2021/08/24 11:30:44;;;;;;;6.55;4.38;;;20.60;85.20;;;;;;5066097;28;20536;-48
2021/08/24 11:33:18;;;;;;;7.20;3.90;;;20.50;84.60;;;;;;5073454;28;20043;-50
2021/08/24 11:35:48;;;;;;;7.18;4.30;;;20.50;84.90;;;;;;5077536;28;20017;-54
2021/08/24 11:38:22;;;;;;;6.13;4.05;;;20.40;86.00;;;;;;5075264;28;20025;-50
2021/08/24 11:41:03;;;;;;;;;;;20.50;85.70;;;;;;5075680;28;20379;-52
2021/08/24 11:43:36;;;;;;;9.73;4.32;;;20.60;85.10;;;;;;5073790;28;20338;-54
2021/08/24 11:46:06;;;;;;;6.63;4.80;;;20.80;85.40;;;;;;5073195;28;20021;-53
2021/08/24 11:48:37;;;;;;;7.10;4.22;;;20.90;82.40;;;;;;5075248;28;20032;-49
2021/08/24 11:51:27;;;;;;;7.30;5.85;;;20.80;81.10;;;;;;5074789;28;20539;-48
2021/08/24 11:54:06;;;;;;;9.65;4.75;;;20.90;82.90;;;;;;5075524;28;20040;-51
2021/08/24 11:56:31;;;;;;;6.63;4.60;;;20.90;83.70;;;;;;5066258;28;20028;-49
2021/08/24 11:59:02;;;;;;;7.13;4.93;;;20.60;84.60;;;;;;5060983;28;20020;-50
2021/08/24 12:01:32;;;;;;;7.07;5.47;;;20.40;84.90;;;;;;5075928;28;20480;-54
2021/08/24 12:04:01;;;;;;;9.13;5.43;;;20.40;84.30;;;;;;5063772;28;20521;-54
2021/08/24 12:06:39;;;;;;;6.88;4.35;;;20.50;84.30;;;;;;5055771;28;20064;-51
2021/08/24 12:09:05;;;;;;;7.05;4.20;;;20.80;82.40;;;;;;5069969;28;20388;-52
2021/08/24 12:11:39;;;;;;;7.07;5.43;;;20.70;81.10;;;;;;5060153;28;20032;-50
2021/08/24 12:14:26;;;;;;;6.55;4.80;;;20.80;82.60;;;;;;5076182;28;20028;-52
2021/08/24 12:16:57;;;;;;;8.02;4.40;;;21.20;82.60;;;;;;5075353;28;20021;-50
2021/08/24 12:19:25;;;;;;;7.90;4.63;;;21.40;82.10;;;;;;5079986;28;20032;-49
2021/08/24 12:21:57;;;;;;;7.72;4.50;;;21.60;81.10;;;;;;5095299;28;20043;-51
2021/08/24 12:24:23;;;;;;;5.60;4.30;;;21.90;81.20;;;;;;5096054;28;20496;-50
2021/08/24 12:27:12;;;;;;;9.35;4.38;;;21.80;79.20;;;;;;5094665;28;20035;-49
2021/08/24 12:29:39;;;;;;;6.15;4.32;;;21.40;81.10;;;;;;5081821;28;20029;-54
2021/08/24 12:32:19;;;;;;;5.55;4.20;;;21.10;81.80;;;;;;5075316;28;20151;-50
2021/08/24 12:34:50;;;;;;;5.68;4.30;;;20.70;82.20;;;;;;5057272;28;20391;-52
2021/08/24 12:37:19;;;;;;;7.70;4.57;;;20.50;82.20;;;;;;5074233;28;20024;-47
2021/08/24 12:39:48;;;;;;;6.10;4.55;;;20.50;83.20;;;;;;5075470;28;20033;-49
2021/08/24 12:42:20;;;;;;;7.40;4.47;;;20.50;82.60;;;;;;5075236;28;20044;-50
2021/08/24 12:45:10;;;;;;;7.85;4.50;;;20.70;83.00;;;;;;5075197;28;20066;-50
2021/08/24 12:47:44;;;;;;;7.20;4.32;;;21.10;81.60;;;;;;5074740;28;20392;-52
2021/08/24 12:50:09;;;;;;;9.20;6.22;;;21.40;80.30;;;;;;5074646;28;20361;-51
2021/08/24 12:52:46;;;;;;;5.40;4.55;;;21.50;80.10;;;;;;5075047;28;20028;-51
2021/08/24 12:55:32;;;;;;;6.15;4.40;;;21.30;79.70;;;;;;5075157;28;20484;-50
2021/08/24 12:58:23;;;;;;;5.00;4.13;;;21.10;79.30;;;;;;5069176;28;20028;-48
2021/08/24 13:01:13;;;;;;;7.68;4.72;;;20.70;79.30;;;;;;5072776;28;20033;-48
2021/08/24 13:03:52;;;;;;;6.18;4.68;;;20.40;80.20;;;;;;5074321;28;20040;-51
2021/08/24 13:06:27;;;;;;;7.10;4.78;;;20.50;81.00;;;;;;5074584;28;20037;-52
2021/08/24 13:09:25;;;;;;;8.25;4.53;;;20.80;81.50;;;;;;5073650;28;20071;-51